»·PEaware :: N1676E KTOA-KVNY

N1676E :: KTOA-KVNY

FLIGHT INFORMATION

Flight Status: Arrived
Operator: Privately registered:
United States
More flights under this callsign
Pilot: Justin C. (30559)
Aircraft: CESSNA 172 SKYHAWK
(C172)
More flights by this aircraft type
Origin: KTOA Zamperini
United States
Destination: KVNY Van Nuys
United States
More flights between these airports :: More routes between these airports
Route: LAX170 LIMBO V64 SMO125 SMO SMO317 CANOG
File this flight plan on PilotEdge
Remarks:
Altitude:
(Current/Filed)
4,000ft
Speed:
(Current/Filed)
105kts
Departed: 01-Aug-20 06:46 PM
Arrived: 01-Aug-20 08:09 PM
Distance/Time
Traveled:
26nm/1:23
Distance/Time
To Go:
Arrived

Flight Plot

Page will automatically refresh every two minutes.


Map Options




Map Legend


Flown Route
Filed Route
Departure Airport
Arrival Airport
Navaid (VOR, NDB)
Fix

Horizontal Profiles

Position Reports

Time Latitude Longitude Heading Altitude Ground
Speed
01-Aug-20 17:59 33.803347 -118.344051 39 102ft 0kts
01-Aug-20 18:00 33.803347 -118.344051 39 102ft 0kts
01-Aug-20 18:00 33.803347 -118.344051 39 102ft 0kts
01-Aug-20 18:02 33.803347 -118.344051 39 102ft 0kts
01-Aug-20 18:03 33.803347 -118.344051 39 102ft 0kts
01-Aug-20 18:04 33.803347 -118.344051 39 102ft 0kts
01-Aug-20 18:04 33.803347 -118.344051 39 102ft 0kts
01-Aug-20 18:06 33.803347 -118.344051 39 102ft 0kts
01-Aug-20 18:07 33.803347 -118.344051 39 102ft 0kts
01-Aug-20 18:07 33.803347 -118.344051 39 102ft 0kts
01-Aug-20 18:08 33.803347 -118.344051 39 102ft 0kts
01-Aug-20 18:09 33.803347 -118.344051 39 102ft 0kts
01-Aug-20 18:10 33.803347 -118.344051 39 102ft 0kts
01-Aug-20 18:11 33.803347 -118.344051 39 102ft 0kts
01-Aug-20 18:12 33.803347 -118.344051 39 102ft 0kts
01-Aug-20 18:13 33.803347 -118.344051 39 102ft 0kts
01-Aug-20 18:14 33.803347 -118.344051 39 102ft 0kts
01-Aug-20 18:15 33.803347 -118.344051 39 102ft 0kts
01-Aug-20 18:16 33.803347 -118.344051 39 102ft 0kts
01-Aug-20 18:17 33.803347 -118.344051 39 102ft 0kts
01-Aug-20 18:18 33.803347 -118.344051 39 102ft 0kts
01-Aug-20 18:19 33.803347 -118.344051 39 102ft 0kts
01-Aug-20 18:20 33.803347 -118.344051 39 102ft 0kts
01-Aug-20 18:21 33.803347 -118.344051 39 102ft 0kts
01-Aug-20 18:22 33.803347 -118.344051 39 102ft 0kts
01-Aug-20 18:23 33.803347 -118.344051 39 102ft 0kts
01-Aug-20 18:24 33.803347 -118.344051 39 102ft 0kts
01-Aug-20 18:25 33.803347 -118.344051 39 102ft 0kts
01-Aug-20 18:26 33.803347 -118.344051 39 102ft 0kts
01-Aug-20 18:27 33.803347 -118.344051 39 102ft 0kts
01-Aug-20 18:28 33.803347 -118.344051 39 102ft 0kts
01-Aug-20 18:29 33.803347 -118.344051 39 102ft 0kts
01-Aug-20 18:30 33.803347 -118.344051 39 102ft 0kts
01-Aug-20 18:31 33.803347 -118.344051 39 102ft 0kts
01-Aug-20 18:32 33.803347 -118.344051 39 102ft 0kts
01-Aug-20 18:33 33.803347 -118.344051 39 102ft 0kts
01-Aug-20 18:34 33.803347 -118.344051 39 102ft 0kts
01-Aug-20 18:35 33.803347 -118.344051 39 102ft 0kts
01-Aug-20 18:36 33.803347 -118.344051 39 102ft 0kts
01-Aug-20 18:37 33.802966 -118.343021 130 103ft 9kts
01-Aug-20 18:38 33.801018 -118.340088 127 105ft 10kts
01-Aug-20 18:39 33.799195 -118.337356 129 107ft 7kts
01-Aug-20 18:40 33.798548 -118.335332 103 105ft 9kts
01-Aug-20 18:41 33.799054 -118.333331 37 101ft 0kts
01-Aug-20 18:42 33.799055 -118.333331 37 101ft 0kts
01-Aug-20 18:43 33.799054 -118.333331 37 101ft 0kts
01-Aug-20 18:44 33.800194 -118.333819 309 99ft 26kts
01-Aug-20 18:45 33.811344 -118.349441 306 784ft 67kts
01-Aug-20 18:46 33.824856 -118.368049 306 1522ft 81kts
01-Aug-20 18:47 33.840491 -118.389903 307 2220ft 88kts
01-Aug-20 18:48 33.856470 -118.412160 307 2902ft 87kts
01-Aug-20 18:49 33.871658 -118.434714 304 3591ft 84kts
01-Aug-20 18:50 33.885491 -118.458360 271 4017ft 101kts
01-Aug-20 18:51 33.860856 -118.460025 155 3999ft 114kts
01-Aug-20 18:52 33.830900 -118.452822 181 4000ft 106kts
01-Aug-20 18:53 33.801648 -118.451487 183 4000ft 104kts
01-Aug-20 18:54 33.772636 -118.450403 178 4000ft 104kts
01-Aug-20 18:55 33.760841 -118.418127 89 4002ft 115kts
01-Aug-20 18:56 33.763781 -118.379663 79 4001ft 115kts
01-Aug-20 18:57 33.767495 -118.341166 83 4000ft 115kts
01-Aug-20 18:58 33.770074 -118.302462 83 4001ft 115kts
01-Aug-20 18:59 33.772280 -118.263839 86 4001ft 115kts
01-Aug-20 19:00 33.774618 -118.225359 86 4001ft 115kts
01-Aug-20 19:01 33.793587 -118.216577 290 4008ft 94kts
01-Aug-20 19:02 33.805658 -118.244809 303 3999ft 96kts
01-Aug-20 19:03 33.824925 -118.267391 313 4000ft 96kts
01-Aug-20 19:04 33.847044 -118.290129 316 4000ft 108kts
01-Aug-20 19:05 33.869491 -118.312741 317 3999ft 98kts
01-Aug-20 19:06 33.889727 -118.333262 318 4000ft 93kts
01-Aug-20 19:07 33.909502 -118.353314 318 4000ft 92kts
01-Aug-20 19:08 33.928671 -118.374000 316 4000ft 92kts
01-Aug-20 19:09 33.948159 -118.394288 316 3999ft 92kts
01-Aug-20 19:10 33.967857 -118.414342 314 3999ft 92kts
01-Aug-20 19:11 33.988324 -118.435998 310 3999ft 103kts
01-Aug-20 19:12 34.007698 -118.457078 311 3995ft 107kts
01-Aug-20 19:13 34.030311 -118.481249 312 3996ft 109kts
01-Aug-20 19:14 34.053513 -118.505777 312 3998ft 110kts
01-Aug-20 19:15 34.076405 -118.529903 312 4000ft 111kts
01-Aug-20 19:16 34.100148 -118.554906 312 3999ft 112kts
01-Aug-20 19:17 34.129841 -118.565301 351 4439ft 113kts
01-Aug-20 19:18 34.161050 -118.566575 350 5004ft 116kts
01-Aug-20 19:19 34.195152 -118.567637 356 4984ft 125kts
01-Aug-20 19:20 34.230192 -118.568126 356 4980ft 127kts
01-Aug-20 19:21 34.265623 -118.569411 355 4984ft 127kts
01-Aug-20 19:22 34.301055 -118.570911 355 4994ft 127kts
01-Aug-20 19:23 34.336338 -118.574597 351 5004ft 126kts
01-Aug-20 19:24 34.371435 -118.580132 349 5013ft 126kts
01-Aug-20 19:25 34.406233 -118.585857 349 5021ft 126kts
01-Aug-20 19:26 34.441088 -118.591566 349 5020ft 126kts
01-Aug-20 19:27 34.470563 -118.579164 62 5019ft 120kts
01-Aug-20 19:28 34.481967 -118.543854 125 5013ft 105kts
01-Aug-20 19:29 34.460840 -118.520703 135 5028ft 103kts
01-Aug-20 19:30 34.436767 -118.508488 182 5025ft 94kts
01-Aug-20 19:31 34.410758 -118.508639 177 5025ft 93kts
01-Aug-20 19:32 34.384639 -118.506968 175 4641ft 95kts
01-Aug-20 19:33 34.357666 -118.504437 174 4136ft 97kts
01-Aug-20 19:34 34.331186 -118.501912 173 3850ft 89kts
01-Aug-20 19:35 34.307749 -118.499784 175 3339ft 78kts
01-Aug-20 19:36 34.289684 -118.498168 172 2729ft 52kts
01-Aug-20 19:37 34.274678 -118.496513 169 2238ft 59kts
01-Aug-20 19:38 34.256921 -118.494806 172 1889ft 70kts
01-Aug-20 19:39 34.237682 -118.492555 171 1426ft 71kts
01-Aug-20 19:40 34.217345 -118.490802 172 1127ft 79kts
01-Aug-20 19:41 34.194047 -118.487895 166 1428ft 85kts
01-Aug-20 19:42 34.171108 -118.482632 167 1760ft 87kts
01-Aug-20 19:43 34.149250 -118.476918 167 2340ft 82kts
01-Aug-20 19:44 34.126591 -118.470346 167 3026ft 84kts
01-Aug-20 19:46 34.103313 -118.462977 167 3636ft 89kts
01-Aug-20 19:47 34.078820 -118.459078 180 4207ft 89kts
01-Aug-20 19:48 34.053321 -118.457525 180 4599ft 105kts
01-Aug-20 19:49 34.022234 -118.455756 194 4751ft 106kts
01-Aug-20 19:50 34.018127 -118.484857 277 5175ft 96kts
01-Aug-20 19:51 34.021555 -118.521257 262 4998ft 116kts
01-Aug-20 19:52 34.023327 -118.557864 273 5007ft 105kts
01-Aug-20 19:53 34.027569 -118.592631 274 5007ft 103kts
01-Aug-20 19:54 34.031947 -118.627054 274 5007ft 103kts
01-Aug-20 19:55 34.040243 -118.660074 322 4997ft 116kts
01-Aug-20 19:56 34.071153 -118.673556 333 5009ft 119kts
01-Aug-20 19:57 34.102396 -118.686565 334 4690ft 115kts
01-Aug-20 19:58 34.132633 -118.699640 326 4184ft 113kts
01-Aug-20 19:59 34.160574 -118.717820 323 3708ft 114kts
01-Aug-20 20:00 34.189196 -118.735484 348 3959ft 123kts
01-Aug-20 20:00 34.215786 -118.725066 48 3680ft 113kts
01-Aug-20 20:02 34.207763 -118.685713 116 3614ft 107kts
01-Aug-20 20:03 34.201119 -118.651062 99 3615ft 105kts
01-Aug-20 20:03 34.199091 -118.622227 98 3408ft 116kts
01-Aug-20 20:05 34.200988 -118.579398 90 3417ft 105kts
01-Aug-20 20:06 34.204040 -118.543788 90 2940ft 112kts
01-Aug-20 20:06 34.204232 -118.513525 97 2430ft 102kts
01-Aug-20 20:07 34.212695 -118.482202 8 1623ft 107kts
01-Aug-20 20:09 34.212416 -118.489388 172 806ft 24kts
01-Aug-20 20:09 34.210301 -118.488704 90 806ft 0kts
01-Aug-20 20:10 34.211888 -118.488546 356 806ft 13kts
01-Aug-20 20:11 34.215120 -118.488831 353 806ft 13kts
01-Aug-20 20:12 34.215667 -118.487716 18 806ft 0kts

Navigation Log

Ident Type
Flight plan parsing failed, navigation log unavailable